Time;durP1;ratioP1;P1;durP2;ratioP2;P2;SDS_P1;SDS_P2;PMS_P1;PMS_P2;Temp;Humidity;BMP_temperature;BMP_pressure;BME280_temperature;BME280_humidity;BME280_pressure;Samples;Min_cycle;Max_cycle;Signal;HPM_P1;HPM_P2
2022/12/06 00:02:02;;;;;;;6.38;1.65;;;;;;;-5.98;81.86;102199.69;10377013;28;20128;-76
2022/12/06 00:07:03;;;;;;;4.43;1.90;;;;;;;-6.27;82.43;102161.19;10376426;28;20124;-77
2022/12/06 00:12:04;;;;;;;4.63;2.17;;;;;;;-6.01;82.47;102220.44;10376839;28;20486;-76
2022/12/06 00:17:05;;;;;;;4.93;1.98;;;;;;;-5.93;83.01;102228.09;10375436;28;20497;-76
2022/12/06 00:22:06;;;;;;;4.90;2.10;;;;;;;-6.21;82.92;102156.81;10379670;28;20566;-76
2022/12/06 00:27:07;;;;;;;3.53;1.75;;;;;;;-6.08;82.38;102146.31;10416327;28;20497;-77
2022/12/06 00:32:08;;;;;;;4.88;2.13;;;;;;;-6.29;82.68;102116.38;10415845;28;20047;-76
2022/12/06 00:37:09;;;;;;;4.75;2.20;;;;;;;-6.25;82.62;102136.16;10416277;28;20132;-76
2022/12/06 00:42:10;;;;;;;5.13;2.15;;;;;;;-6.40;82.30;102120.78;10416018;28;20052;-76
2022/12/06 00:47:11;;;;;;;3.70;1.98;;;;;;;-6.25;82.49;102167.19;10416098;28;20080;-77
2022/12/06 00:52:11;;;;;;;6.60;2.20;;;;;;;-6.27;82.75;102162.03;10415793;28;20045;-76
2022/12/06 00:57:12;;;;;;;4.70;2.30;;;;;;;-6.11;82.69;102179.97;10414954;28;20524;-76
2022/12/06 01:02:13;;;;;;;4.95;2.08;;;;;;;-5.99;82.86;102191.03;10415321;28;20386;-76
2022/12/06 01:07:14;;;;;;;3.42;1.75;;;;;;;-5.86;82.33;102190.88;10414848;28;20094;-76
2022/12/06 01:12:15;;;;;;;5.47;1.90;;;;;;;-5.93;81.13;102182.34;10415289;28;20098;-76
2022/12/06 01:17:15;;;;;;;2.70;1.40;;;;;;;-6.34;81.44;102105.22;10414672;28;20103;-77
2022/12/06 01:22:16;;;;;;;3.88;1.90;;;;;;;-6.10;80.23;102177.41;10413990;28;20045;-77
2022/12/06 01:27:17;;;;;;;3.38;1.60;;;;;;;-6.41;79.75;102134.59;10414036;28;20033;-77
2022/12/06 01:32:18;;;;;;;3.92;1.70;;;;;;;-6.54;77.87;102098.53;10414450;28;20042;-77
2022/12/06 01:37:19;;;;;;;3.05;1.35;;;;;;;-5.98;77.82;102181.56;10414046;28;20045;-77
2022/12/06 01:42:20;;;;;;;4.53;1.92;;;;;;;-6.04;76.48;102158.31;10414392;28;20061;-77
2022/12/06 01:47:31;;;;;;;5.03;1.83;;;;;;;-5.97;74.55;102152.22;10413312;28;20053;-77
2022/12/06 01:52:57;;;;;;;5.57;2.33;;;;;;;-5.82;70.83;102162.34;10413768;28;20450;-77
2022/12/06 01:58:03;;;;;;;7.65;2.33;;;;;;;-5.94;73.68;102156.50;10404543;28;20038;-76
2022/12/06 02:03:10;;;;;;;6.80;2.38;;;;;;;-6.05;72.02;102149.72;10412239;28;20051;-77
2022/12/06 02:08:12;;;;;;;6.22;2.50;;;;;;;-6.62;70.97;102071.91;10412500;28;20479;-77
2022/12/06 02:13:13;;;;;;;5.80;2.40;;;;;;;-6.21;70.48;102168.88;10413593;28;20079;-76
2022/12/06 02:18:26;;;;;;;6.65;2.45;;;;;;;-6.13;66.45;102169.66;10391162;28;20049;-76
2022/12/06 02:23:55;;;;;;;3.95;1.88;;;;;;;-6.56;67.28;102107.19;10381053;28;20054;-76
2022/12/06 02:29:34;;;;;;;5.60;1.95;;;;;;;-6.23;64.58;102173.22;10382858;28;20084;-77
2022/12/06 02:34:47;;;;;;;5.38;1.98;;;;;;;-6.30;67.41;102167.25;10420449;28;20068;-81
2022/12/06 02:39:54;;;;;;;4.85;1.95;;;;;;;-6.44;67.22;102138.06;10410655;28;20055;-80
2022/12/06 02:45:01;;;;;;;3.17;1.60;;;;;;;-6.25;68.63;102156.84;10379718;28;20045;-81
2022/12/06 02:50:07;;;;;;;5.55;1.90;;;;;;;-6.17;68.38;102167.97;10379913;28;20041;-80
2022/12/06 02:55:10;;;;;;;6.40;2.15;;;;;;;-6.70;67.27;102081.47;10379246;28;20038;-81
2022/12/06 03:00:50;;;;;;;9.48;2.10;;;;;;;-5.97;67.46;102173.78;10378926;28;20049;-84
2022/12/06 03:06:01;;;;;;;9.30;1.90;;;;;;;-6.02;68.70;102139.31;10422776;28;20425;-79
2022/12/06 03:11:03;;;;;;;4.68;1.80;;;;;;;-6.02;69.22;102164.34;10418527;28;20040;-83
2022/12/06 03:16:19;;;;;;;5.00;2.30;;;;;;;-6.76;68.45;102035.00;10419238;28;20547;-81
2022/12/06 03:21:29;;;;;;;5.85;2.20;;;;;;;-6.22;68.39;102141.31;10419726;28;20045;-81
2022/12/06 03:26:33;;;;;;;5.32;1.88;;;;;;;-6.41;68.73;102103.59;10416061;28;20041;-82
2022/12/06 03:31:38;;;;;;;8.02;2.45;;;;;;;-6.23;68.52;102121.47;10416202;28;20041;-81
2022/12/06 03:36:41;;;;;;;8.80;3.65;;;;;;;-5.75;68.64;102178.66;10414239;28;20103;-79
2022/12/06 03:41:50;;;;;;;5.40;2.33;;;;;;;-5.74;67.46;102180.41;10399187;28;20085;-75
2022/12/06 03:47:04;;;;;;;9.40;2.83;;;;;;;-5.79;67.06;102172.66;10406993;28;20115;-77
2022/12/06 03:52:05;;;;;;;;;;;;;;;-5.74;67.60;102199.38;10394355;28;20063;-82
2022/12/06 03:57:06;;;;;;;8.13;3.25;;;;;;;-6.44;68.29;102128.59;10376414;28;19917;-81
2022/12/06 04:02:07;;;;;;;11.88;3.40;;;;;;;-6.46;68.03;102135.53;10376991;28;20044;-82
2022/12/06 04:07:09;;;;;;;7.47;2.80;;;;;;;-6.28;67.59;102160.34;10376281;28;20037;-78
2022/12/06 04:23:04;;;;;;;8.63;3.72;;;;;;;-6.02;67.39;102191.06;10376142;28;20111;-80
2022/12/06 04:38:43;;;;;;;10.13;3.58;;;;;;;-6.48;67.53;102119.16;10370584;28;20041;-78
2022/12/06 04:43:44;;;;;;;10.50;3.10;;;;;;;-5.86;67.63;102180.50;10385098;28;20046;-79
2022/12/06 04:48:45;;;;;;;6.63;3.05;;;;;;;-6.30;67.59;102107.75;10372947;28;20120;-77
2022/12/06 04:53:46;;;;;;;10.73;4.70;;;;;;;-6.52;67.30;102078.72;10395069;28;20107;-82
2022/12/06 04:58:47;;;;;;;12.05;4.90;;;;;;;-5.70;67.26;102178.63;10375210;28;20073;-80
2022/12/06 05:03:47;;;;;;;15.68;5.45;;;;;;;-5.53;67.66;102185.28;10375275;28;20069;-82
2022/12/06 05:08:48;;;;;;;15.40;6.07;;;;;;;-5.51;66.82;102193.88;10374850;28;20041;-81
2022/12/06 05:13:49;;;;;;;16.48;6.65;;;;;;;-5.56;67.22;102179.31;10375447;28;20065;-81
2022/12/06 05:18:50;;;;;;;14.70;6.38;;;;;;;-5.65;67.67;102158.69;10376411;28;20410;-81
2022/12/06 05:23:55;;;;;;;15.15;6.10;;;;;;;-5.44;66.25;102193.78;10376440;28;20092;-80
2022/12/06 05:28:57;;;;;;;15.52;6.40;;;;;;;-5.54;66.69;102167.19;10375398;28;20413;-81
2022/12/06 05:33:57;;;;;;;12.65;6.28;;;;;;;-5.16;66.45;102197.72;10374748;28;20038;-81
2022/12/06 05:38:58;;;;;;;16.75;7.00;;;;;;;-5.48;66.58;102135.16;10374846;28;20046;-81
2022/12/06 05:43:59;;;;;;;14.75;5.63;;;;;;;-5.24;66.39;102173.66;10374553;28;20507;-81
2022/12/06 05:49:00;;;;;;;12.80;5.68;;;;;;;-5.17;66.86;102174.44;10375274;28;20041;-82
2022/12/06 05:54:03;;;;;;;16.42;5.95;;;;;;;-5.22;64.51;102203.00;10372365;28;20042;-82
2022/12/06 05:59:05;;;;;;;15.30;5.68;;;;;;;-5.49;64.66;102131.72;10373607;28;20038;-82
2022/12/06 06:04:05;;;;;;;13.50;5.45;;;;;;;-4.88;64.17;102210.28;10373722;28;20080;-82
2022/12/06 06:09:06;;;;;;;16.40;4.78;;;;;;;-4.82;64.73;102205.00;10373938;28;20065;-81
2022/12/06 06:14:07;;;;;;;10.93;4.32;;;;;;;-4.87;64.18;102165.34;10375135;28;20117;-82
2022/12/06 06:19:08;;;;;;;8.98;3.85;;;;;;;-4.58;64.06;102180.41;10374021;28;20050;-82
2022/12/06 06:24:09;;;;;;;11.27;4.32;;;;;;;-4.35;62.62;102187.78;10373729;28;20078;-82
2022/12/06 06:29:09;;;;;;;16.98;3.75;;;;;;;-4.01;62.61;102201.03;10374046;28;20144;-82
2022/12/06 06:34:10;;;;;;;7.97;3.10;;;;;;;-4.18;62.47;102139.03;10373282;28;20046;-81
2022/12/06 06:39:11;;;;;;;9.10;3.33;;;;;;;-4.70;58.98;102088.09;10371765;28;20513;-80
2022/12/06 06:44:12;;;;;;;7.53;3.22;;;;;;;-4.18;61.36;102172.78;10371908;28;20136;-82
2022/12/06 06:49:13;;;;;;;17.15;3.72;;;;;;;-4.51;61.10;102064.47;10371414;28;20045;-82
2022/12/06 06:54:14;;;;;;;9.75;3.67;;;;;;;-4.15;59.55;102109.56;10372670;28;20486;-81
2022/12/06 06:59:15;;;;;;;8.63;3.00;;;;;;;-4.21;55.57;102112.28;10372635;28;20046;-80
2022/12/06 07:04:16;;;;;;;9.35;2.67;;;;;;;-3.61;57.97;102157.81;10371898;28;20041;-81
2022/12/06 07:09:17;;;;;;;6.45;2.20;;;;;;;-3.43;56.66;102136.63;10379807;28;20525;-81
2022/12/06 07:14:18;;;;;;;8.52;2.72;;;;;;;-3.58;56.28;102148.19;10379956;28;20128;-81
2022/12/06 07:19:19;;;;;;;5.25;1.75;;;;;;;-3.94;55.93;102056.38;10378680;28;20060;-81
2022/12/06 07:24:19;;;;;;;7.63;1.70;;;;;;;-3.11;56.70;102130.69;10378957;28;20494;-81
2022/12/06 07:29:20;;;;;;;4.50;1.33;;;;;;;-2.89;55.12;102150.97;10377446;28;20064;-81
2022/12/06 07:34:22;;;;;;;6.68;1.30;;;;;;;-2.80;54.20;102141.19;10378277;28;20088;-81
2022/12/06 07:39:23;;;;;;;1.67;0.77;;;;;;;-2.45;54.20;102146.34;10378052;28;20482;-82
2022/12/06 07:49:43;;;;;;;3.33;0.90;;;;;;;-1.99;50.59;102095.63;10376978;28;20061;-82
2022/12/06 07:54:44;;;;;;;3.75;0.80;;;;;;;-1.68;51.92;102132.06;10376779;28;20532;-80
2022/12/06 07:59:45;;;;;;;4.38;0.77;;;;;;;-1.63;51.36;102127.56;10376401;28;20414;-80
2022/12/06 08:04:46;;;;;;;3.45;1.08;;;;;;;-1.81;52.14;102037.78;10377505;28;20417;-82
2022/12/06 08:09:47;;;;;;;1.88;0.70;;;;;;;-1.28;51.09;102099.56;10376400;28;20080;-83
2022/12/06 08:14:47;;;;;;;2.63;0.85;;;;;;;-1.17;49.02;102119.19;10376257;28;20085;-82
2022/12/06 08:19:48;;;;;;;4.03;0.73;;;;;;;-1.52;51.36;102062.94;10376015;28;20041;-82
2022/12/06 08:24:49;;;;;;;1.58;0.63;;;;;;;-1.39;51.04;102053.81;10375965;28;20045;-82
2022/12/06 08:29:50;;;;;;;1.67;0.70;;;;;;;-1.50;51.17;102027.25;10375482;28;20069;-82
2022/12/06 08:34:50;;;;;;;2.40;0.70;;;;;;;-1.06;50.74;102094.50;10375773;28;20053;-81
2022/12/06 08:39:51;;;;;;;3.25;0.80;;;;;;;-0.93;51.92;102073.19;10375008;28;20096;-81
2022/12/06 08:44:53;;;;;;;3.80;0.80;;;;;;;-0.92;51.83;102061.84;10374870;28;20087;-81
2022/12/06 08:49:54;;;;;;;3.65;1.20;;;;;;;-0.89;52.64;102028.72;10374828;28;20417;-83
2022/12/06 08:54:54;;;;;;;1.83;0.80;;;;;;;-0.42;53.19;102067.94;10374495;28;20042;-81
2022/12/06 08:59:55;;;;;;;2.83;1.17;;;;;;;-0.20;53.76;102060.19;10373527;28;20563;-82
2022/12/06 09:04:56;;;;;;;2.20;0.93;;;;;;;-0.22;53.27;102062.84;10374653;28;20098;-81
2022/12/06 09:09:57;;;;;;;2.72;1.00;;;;;;;-0.27;52.17;102042.16;10373664;28;20037;-82
2022/12/06 09:14:57;;;;;;;2.35;0.98;;;;;;;-1.32;51.92;101921.50;10372579;28;20131;-79
2022/12/06 09:19:58;;;;;;;2.95;1.00;;;;;;;-0.88;53.45;101932.13;10374002;28;20057;-82
2022/12/06 09:24:59;;;;;;;3.13;1.02;;;;;;;-1.23;53.51;101829.06;10372810;28;20048;-81
2022/12/06 09:30:00;;;;;;;1.63;0.65;;;;;;;0.12;54.01;102035.44;10372745;28;20405;-80
2022/12/06 09:35:00;;;;;;;1.60;0.60;;;;;;;0.23;53.44;102028.91;10373151;28;20048;-80
2022/12/06 09:40:10;;;;;;;1.80;0.47;;;;;;;0.17;52.58;102003.00;10372240;28;20095;-80
2022/12/06 09:45:26;;;;;;;1.50;0.63;;;;;;;0.30;52.99;102029.53;10372826;28;20060;-80
2022/12/06 09:51:01;;;;;;;5.55;0.82;;;;;;;0.31;48.87;102019.91;10371352;28;20058;-82
2022/12/06 09:56:26;;;;;;;4.03;0.40;;;;;;;0.16;51.58;102016.16;10371828;28;20058;-82
2022/12/06 10:01:49;;;;;;;4.10;0.65;;;;;;;0.23;51.92;102004.53;10365135;28;20053;-81
2022/12/06 10:07:05;;;;;;;4.75;0.95;;;;;;;-0.31;51.11;101922.19;10372192;28;20046;-82
2022/12/06 10:12:25;;;;;;;1.95;0.75;;;;;;;-0.58;51.82;101861.44;10372680;28;20087;-81
2022/12/06 10:17:45;;;;;;;1.13;0.50;;;;;;;-0.19;51.71;101957.41;10371891;28;20042;-81
2022/12/06 10:23:13;;;;;;;1.40;0.50;;;;;;;0.08;51.97;101981.63;10372260;28;20128;-79
2022/12/06 10:28:34;;;;;;;2.47;0.50;;;;;;;0.08;50.50;101968.56;10371494;28;20042;-82
2022/12/06 10:33:44;;;;;;;1.83;0.60;;;;;;;0.06;50.36;101986.03;10371517;28;20394;-83
2022/12/06 10:38:50;;;;;;;0.85;0.45;;;;;;;-0.26;51.54;101926.31;10372331;28;20133;-82
2022/12/06 10:43:57;;;;;;;1.13;0.52;;;;;;;0.12;51.61;101980.56;10379999;28;20045;-83
2022/12/06 10:49:07;;;;;;;3.05;0.60;;;;;;;-0.09;50.42;101975.31;10379369;28;20037;-81
2022/12/06 10:54:21;;;;;;;3.92;1.10;;;;;;;-0.42;50.88;101919.97;10379187;28;20042;-80
2022/12/06 10:59:38;;;;;;;3.17;0.60;;;;;;;-0.39;51.09;101908.56;10378443;28;20405;-81
2022/12/06 11:04:41;;;;;;;4.13;0.70;;;;;;;-0.04;51.52;101982.94;10379088;28;20041;-81
2022/12/06 11:09:50;;;;;;;1.67;0.47;;;;;;;-0.73;50.57;101905.47;10378663;28;20046;-80
2022/12/06 11:15:00;;;;;;;2.15;0.68;;;;;;;-0.49;50.02;101957.66;10378321;28;20037;-80
2022/12/06 11:20:32;;;;;;;1.77;0.50;;;;;;;-0.39;49.63;101966.00;10378094;28;20107;-80
2022/12/06 11:25:56;;;;;;;2.92;0.43;;;;;;;-0.80;48.81;101904.00;10377921;28;20116;-80
2022/12/06 11:30:57;;;;;;;2.67;0.57;;;;;;;-0.50;50.35;101969.88;10377808;28;20501;-81
2022/12/06 11:36:04;;;;;;;1.60;0.60;;;;;;;-0.53;49.41;101967.38;10377533;28;20049;-81
2022/12/06 11:41:09;;;;;;;1.23;0.45;;;;;;;-0.92;50.15;101914.91;10376990;28;20069;-80
2022/12/06 11:46:12;;;;;;;3.15;0.47;;;;;;;-0.65;49.66;101974.81;10376759;28;20061;-81
2022/12/06 11:51:22;;;;;;;1.90;0.60;;;;;;;-0.75;49.07;101977.75;10376776;28;20042;-81
2022/12/06 11:56:29;;;;;;;6.38;0.80;;;;;;;-1.29;48.87;101894.47;10377080;28;20416;-83
2022/12/06 12:01:45;;;;;;;2.75;0.60;;;;;;;-1.18;48.70;101928.84;10375021;28;20034;-82
2022/12/06 12:06:46;;;;;;;1.58;0.55;;;;;;;-1.26;49.74;101923.06;10377206;28;20100;-79
2022/12/06 12:11:58;;;;;;;5.93;0.60;;;;;;;-1.58;48.95;101893.75;10376273;28;20076;-80
2022/12/06 12:17:02;;;;;;;3.47;0.60;;;;;;;-1.28;49.71;101956.16;10379631;28;20055;-81
2022/12/06 12:22:39;;;;;;;1.48;0.50;;;;;;;-1.33;50.34;101971.94;10392424;28;20049;-79
2022/12/06 12:27:40;;;;;;;3.13;0.63;;;;;;;-1.49;49.88;101976.00;10349928;28;20046;-80
2022/12/06 12:32:41;;;;;;;4.00;0.80;;;;;;;-1.67;49.43;101961.81;10414213;28;20464;-81
2022/12/06 12:37:43;;;;;;;3.55;0.80;;;;;;;-2.07;48.94;101932.66;10431501;28;20051;-79
2022/12/06 12:42:45;;;;;;;1.25;0.50;;;;;;;-1.86;49.66;101964.97;10432109;28;20073;-81
2022/12/06 12:48:03;;;;;;;7.90;2.10;;;;;;;-1.95;49.62;101977.44;10416043;28;20060;-79
2022/12/06 12:53:04;;;;;;;1.60;0.68;;;;;;;-2.19;50.11;101947.81;10416384;28;20504;-79
2022/12/06 12:58:09;;;;;;;1.88;0.75;;;;;;;-2.85;50.59;101882.13;10415056;28;20131;-81
2022/12/06 13:03:16;;;;;;;1.90;0.77;;;;;;;-2.48;50.54;101972.97;10410519;28;20047;-81
2022/12/06 13:08:20;;;;;;;3.72;0.82;;;;;;;-2.52;50.08;101989.53;10412380;28;20045;-80
2022/12/06 13:13:42;;;;;;;1.95;0.88;;;;;;;-2.60;50.57;101994.13;10414372;28;20037;-81
2022/12/06 13:18:50;;;;;;;2.85;0.85;;;;;;;-2.97;50.85;101955.25;10414213;28;20060;-80
2022/12/06 13:24:04;;;;;;;9.85;2.22;;;;;;;-3.34;50.97;101915.53;10414047;28;20068;-79
2022/12/06 13:29:14;;;;;;;;;;;;;;;-2.84;51.84;102000.84;10414542;28;20132;-79
2022/12/06 13:34:18;;;;;;;7.38;1.60;;;;;;;-3.00;51.94;102013.41;10414192;28;19924;-78
2022/12/06 13:39:47;;;;;;;5.70;1.70;;;;;;;-3.19;51.53;101994.00;10413214;28;20045;-78
2022/12/06 13:44:59;;;;;;;11.88;1.85;;;;;;;-3.33;52.34;101989.13;10400644;28;20054;-78
2022/12/06 13:50:10;;;;;;;4.85;1.30;;;;;;;-3.29;52.26;102003.75;10373245;28;20065;-79
2022/12/06 13:55:23;;;;;;;15.10;1.73;;;;;;;-3.85;53.33;101926.34;10373423;28;20055;-78
2022/12/06 14:00:29;;;;;;;3.88;1.40;;;;;;;-3.44;53.35;101997.19;10376545;28;20045;-76
2022/12/06 14:06:03;;;;;;;5.28;1.45;;;;;;;-3.53;52.88;102002.59;10407902;28;20073;-77
2022/12/06 14:11:22;;;;;;;;;;;;;;;-3.46;53.58;101997.22;10406327;28;20115;-76
2022/12/06 14:16:45;;;;;;;3.63;1.20;;;;;;;-3.56;54.18;101968.91;10410415;28;19917;-77
2022/12/06 14:21:55;;;;;;;3.35;1.20;;;;;;;-3.60;53.84;101965.53;10415528;28;20049;-77
2022/12/06 14:27:15;;;;;;;3.65;1.50;;;;;;;-3.55;54.58;101947.25;10414513;28;20519;-77
2022/12/06 14:32:16;;;;;;;3.28;1.60;;;;;;;-3.34;54.66;101990.88;10415605;28;20033;-77
2022/12/06 14:37:21;;;;;;;3.08;1.27;;;;;;;-3.20;53.64;101998.34;10414680;28;20033;-77
2022/12/06 14:47:43;;;;;;;4.70;1.60;;;;;;;-3.36;54.63;101981.41;10408230;28;20089;-75
2022/12/06 14:53:05;;;;;;;4.57;1.55;;;;;;;-3.75;55.02;101911.38;10410283;28;20124;-76
2022/12/06 14:58:18;;;;;;;5.45;1.33;;;;;;;-3.57;54.13;101949.88;10403751;28;20405;-76
2022/12/06 15:03:27;;;;;;;14.35;1.92;;;;;;;-3.44;54.59;101968.59;10419788;28;20045;-76
2022/12/06 15:08:32;;;;;;;4.10;1.30;;;;;;;-3.47;55.09;101966.06;10418851;28;20037;-75
2022/12/06 15:13:33;;;;;;;3.45;1.50;;;;;;;-3.94;54.34;101893.66;10419287;28;20061;-76
2022/12/06 15:18:41;;;;;;;4.30;1.10;;;;;;;-3.51;54.63;101956.66;10391347;28;20077;-76
2022/12/06 15:23:53;;;;;;;3.10;1.13;;;;;;;-3.52;54.21;101973.16;10412618;28;20132;-76
2022/12/06 15:28:54;;;;;;;2.83;1.13;;;;;;;-3.51;54.03;101999.09;10418615;28;20045;-75
2022/12/06 15:33:55;;;;;;;5.40;1.30;;;;;;;-4.36;54.71;101857.47;10412726;28;20110;-76
2022/12/06 15:38:56;;;;;;;2.75;1.13;;;;;;;-3.63;54.75;101978.59;10382789;28;20053;-77
2022/12/06 15:43:57;;;;;;;3.88;1.27;;;;;;;-3.73;54.49;101967.59;10385228;28;20057;-78
2022/12/06 15:48:58;;;;;;;4.28;1.13;;;;;;;-4.47;54.50;101849.06;10391472;28;20077;-78
2022/12/06 15:53:59;;;;;;;5.25;1.20;;;;;;;-3.77;54.14;101981.53;10387023;28;20084;-74
2022/12/06 15:59:00;;;;;;;6.05;1.38;;;;;;;-3.82;55.18;101977.34;10376187;28;20049;-81
2022/12/06 16:04:02;;;;;;;3.13;1.40;;;;;;;-3.89;55.14;101968.81;10378935;28;20042;-78
2022/12/06 16:09:02;;;;;;;3.90;1.52;;;;;;;-3.95;55.16;101950.78;10389093;28;20490;-82
2022/12/06 16:14:04;;;;;;;2.30;0.98;;;;;;;-3.76;55.13;101996.22;10388715;28;20050;-80
2022/12/06 16:19:05;;;;;;;4.00;1.55;;;;;;;-4.24;55.00;101915.16;10397811;28;20136;-77
2022/12/06 16:24:11;;;;;;;2.63;0.95;;;;;;;-3.90;54.94;101974.91;10388517;28;20608;-78
2022/12/06 16:29:23;;;;;;;3.83;1.30;;;;;;;-3.84;54.89;101979.97;10392219;28;20057;-78
2022/12/06 16:34:26;;;;;;;2.13;0.82;;;;;;;-4.20;54.82;101930.59;10394781;28;20497;-81
2022/12/06 16:39:28;;;;;;;3.63;1.23;;;;;;;-3.87;54.51;101993.03;10391749;28;20069;-78
2022/12/06 16:44:29;;;;;;;3.38;1.30;;;;;;;-4.30;54.45;101920.47;10383063;28;20062;-81
2022/12/06 16:49:31;;;;;;;4.00;1.27;;;;;;;-4.74;54.41;101855.72;10388899;28;20046;-82
2022/12/06 16:54:31;;;;;;;4.35;1.20;;;;;;;-4.00;54.57;101973.44;10435951;28;20101;-82
2022/12/06 16:59:34;;;;;;;2.25;0.90;;;;;;;-4.08;55.15;101949.38;10416721;28;20076;-81
2022/12/06 17:04:34;;;;;;;3.72;1.05;;;;;;;-3.95;55.49;101976.75;10395688;28;20046;-82
2022/12/06 17:09:35;;;;;;;5.85;1.20;;;;;;;-4.25;55.28;101932.44;10375362;28;20044;-83
2022/12/06 17:14:37;;;;;;;2.75;0.98;;;;;;;-4.24;55.26;101918.59;10426862;28;20041;-84
2022/12/06 17:19:38;;;;;;;2.75;1.13;;;;;;;-3.94;55.20;101968.94;10434930;28;20136;-84
2022/12/06 17:24:39;;;;;;;8.23;1.30;;;;;;;-3.94;55.70;101973.28;10429849;28;20576;-82
2022/12/06 17:29:40;;;;;;;2.55;1.00;;;;;;;-3.99;55.97;101973.38;10425834;28;20505;-82
2022/12/06 17:34:41;;;;;;;2.50;0.90;;;;;;;-4.46;56.89;101912.16;10433992;28;20127;-81
2022/12/06 17:39:41;;;;;;;3.03;1.08;;;;;;;-4.47;57.59;101910.47;10430127;28;20048;-83
2022/12/06 17:44:42;;;;;;;2.42;1.10;;;;;;;-4.15;58.27;101967.69;10428380;28;20117;-81
2022/12/06 17:49:44;;;;;;;4.30;1.30;;;;;;;-4.47;59.09;101920.84;10403485;28;20045;-82
2022/12/06 17:54:44;;;;;;;3.33;1.13;;;;;;;-4.65;59.61;101894.41;10426109;28;20432;-85
2022/12/06 17:59:47;;;;;;;2.22;0.90;;;;;;;-5.09;60.24;101825.34;10397760;28;20111;-82
2022/12/06 18:04:47;;;;;;;2.70;1.00;;;;;;;-4.31;61.14;101974.09;10385726;28;20045;-82
2022/12/06 18:09:48;;;;;;;3.03;1.05;;;;;;;-4.36;61.48;101958.63;10374539;28;20046;-84
2022/12/06 18:14:49;;;;;;;2.75;1.10;;;;;;;-4.79;62.03;101899.03;10397351;28;20049;-85
2022/12/06 18:19:50;;;;;;;2.55;1.40;;;;;;;-4.45;62.29;101950.19;10373659;28;20053;-82
2022/12/06 18:24:51;;;;;;;3.38;1.38;;;;;;;-4.66;63.01;101918.66;10379124;28;20052;-80
2022/12/06 18:29:52;;;;;;;3.45;1.20;;;;;;;-4.71;63.80;101928.25;10407817;28;20095;-83
2022/12/06 18:34:53;;;;;;;3.58;1.42;;;;;;;-5.06;63.76;101859.81;10413991;28;20061;-84
2022/12/06 18:39:54;;;;;;;3.42;1.25;;;;;;;-4.71;64.21;101941.22;10395017;28;20409;-83
2022/12/06 18:44:55;;;;;;;3.47;1.48;;;;;;;-5.45;64.64;101814.00;10372875;28;20110;-82
2022/12/06 18:49:55;;;;;;;6.35;1.42;;;;;;;-4.87;65.22;101906.13;10382138;28;20421;-82
2022/12/06 18:54:56;;;;;;;7.55;1.50;;;;;;;-4.83;65.66;101929.34;10393260;28;20042;-82
2022/12/06 18:59:57;;;;;;;3.65;1.60;;;;;;;-5.59;66.09;101804.78;10381933;28;20420;-81
2022/12/06 19:04:58;;;;;;;6.07;2.00;;;;;;;-4.71;66.27;101953.31;10398672;28;20577;-82
2022/12/06 19:09:59;;;;;;;4.10;1.67;;;;;;;-4.90;66.64;101909.63;10380710;28;20053;-81
2022/12/06 19:14:59;;;;;;;4.07;1.73;;;;;;;-4.81;67.32;101908.59;10400769;28;20037;-81
2022/12/06 19:20:00;;;;;;;3.97;1.50;;;;;;;-5.55;67.32;101795.19;10404429;28;20050;-80
2022/12/06 19:25:01;;;;;;;4.78;1.75;;;;;;;-4.74;68.54;101937.84;10389531;28;20045;-77
2022/12/06 19:30:06;;;;;;;4.22;1.55;;;;;;;-5.44;69.07;101821.75;10398800;28;20048;-78
2022/12/06 19:35:07;;;;;;;3.45;1.52;;;;;;;-4.90;69.79;101919.16;10424353;28;20049;-78
2022/12/06 19:40:08;;;;;;;4.72;2.03;;;;;;;-4.88;71.18;101917.34;10419039;28;20139;-78
2022/12/06 19:45:09;;;;;;;4.13;1.70;;;;;;;-4.83;70.78;101928.50;10418025;28;20061;-77
2022/12/06 19:50:10;;;;;;;3.95;1.92;;;;;;;-5.15;71.97;101869.53;10418770;28;20060;-77
2022/12/06 19:55:11;;;;;;;7.28;2.08;;;;;;;-5.05;72.68;101902.16;10394530;28;20076;-78
2022/12/06 20:00:12;;;;;;;6.18;2.03;;;;;;;-5.06;73.33;101916.84;10376497;28;20053;-78
2022/12/06 20:05:13;;;;;;;5.65;2.50;;;;;;;-5.12;75.37;101926.47;10377227;28;20042;-78
2022/12/06 20:10:14;;;;;;;4.57;1.98;;;;;;;-5.19;74.36;101909.34;10376120;28;20406;-78
2022/12/06 20:15:15;;;;;;;6.82;2.15;;;;;;;-5.10;75.31;101922.13;10376265;28;20038;-79
2022/12/06 20:20:16;;;;;;;7.78;2.15;;;;;;;-5.04;75.56;101911.63;10376233;28;20042;-78
2022/12/06 20:25:16;;;;;;;4.82;2.33;;;;;;;-5.31;76.37;101875.00;10374898;28;20038;-79
2022/12/06 20:30:18;;;;;;;4.65;2.30;;;;;;;-5.20;77.22;101898.13;10375801;28;20113;-78
2022/12/06 20:35:19;;;;;;;6.03;2.75;;;;;;;-5.75;77.94;101803.34;10376781;28;20061;-77
2022/12/06 20:40:20;;;;;;;6.32;3.20;;;;;;;-5.58;78.15;101849.63;10375488;28;20402;-79
2022/12/06 20:45:21;;;;;;;7.68;2.67;;;;;;;-5.52;79.24;101878.84;10375229;28;20053;-79
2022/12/06 20:50:21;;;;;;;5.25;2.05;;;;;;;-5.42;78.97;101879.53;10375499;28;20038;-79
2022/12/06 20:55:22;;;;;;;5.50;2.65;;;;;;;-5.39;79.86;101904.53;10374660;28;20045;-78
2022/12/06 21:00:23;;;;;;;6.15;3.15;;;;;;;-5.81;79.89;101837.94;10374903;28;20561;-80
2022/12/06 21:05:24;;;;;;;5.72;3.17;;;;;;;-5.57;80.24;101898.78;10374790;28;20128;-79
2022/12/06 21:10:24;;;;;;;6.57;3.10;;;;;;;-6.10;81.35;101822.09;10373659;28;20549;-79
2022/12/06 21:15:25;;;;;;;7.50;3.17;;;;;;;-6.08;80.79;101813.44;10373195;28;20038;-78
2022/12/06 21:20:26;;;;;;;7.63;3.30;;;;;;;-5.54;81.07;101884.94;10374843;28;20133;-78
2022/12/06 21:25:27;;;;;;;7.88;3.97;;;;;;;-5.63;81.19;101877.34;10373359;28;20046;-79
2022/12/06 21:30:28;;;;;;;7.05;3.22;;;;;;;-6.12;81.59;101798.84;10373092;28;20041;-79
2022/12/06 21:35:28;;;;;;;9.23;4.30;;;;;;;-6.18;82.19;101788.63;10373845;28;20448;-78
2022/12/06 21:40:31;;;;;;;13.02;4.22;;;;;;;-5.70;81.79;101857.63;10373294;28;20042;-79
2022/12/06 21:45:36;;;;;;;7.20;3.50;;;;;;;-5.49;82.15;101892.63;10372690;28;20089;-79
2022/12/06 21:50:37;;;;;;;9.05;4.10;;;;;;;-5.62;82.15;101869.56;10372795;28;20133;-79
2022/12/06 21:55:38;;;;;;;8.75;3.40;;;;;;;-5.84;82.54;101831.97;10372755;28;20682;-78
2022/12/06 22:00:38;;;;;;;7.00;3.50;;;;;;;-5.62;82.42;101864.38;10372182;28;20081;-80
2022/12/06 22:05:40;;;;;;;6.70;4.22;;;;;;;-6.00;83.21;101803.81;10373478;28;20049;-79
2022/12/06 22:10:41;;;;;;;7.65;3.67;;;;;;;-5.61;82.79;101868.66;10379016;28;20037;-80
2022/12/06 22:15:42;;;;;;;10.35;4.55;;;;;;;-5.66;83.18;101852.34;10376268;28;20498;-79
2022/12/06 22:20:43;;;;;;;9.77;4.40;;;;;;;-6.39;83.30;101724.34;10372650;28;20561;-79
2022/12/06 22:25:43;;;;;;;8.30;4.65;;;;;;;-5.70;83.50;101848.13;10372304;28;20141;-79
2022/12/06 22:30:44;;;;;;;10.65;5.50;;;;;;;-5.74;83.59;101849.06;10371938;28;20502;-79
2022/12/06 22:35:45;;;;;;;8.10;4.95;;;;;;;-5.82;84.44;101838.00;10373640;28;20395;-79
2022/12/06 22:40:55;;;;;;;7.90;4.68;;;;;;;-5.77;84.47;101836.19;10379190;28;20041;-79
2022/12/06 22:46:12;;;;;;;8.55;4.53;;;;;;;-5.98;84.47;101816.75;10379722;28;20092;-80
2022/12/06 22:51:16;;;;;;;11.38;6.32;;;;;;;-6.09;84.76;101793.63;10379423;28;20054;-78
2022/12/06 22:56:17;;;;;;;12.50;6.20;;;;;;;-5.78;84.36;101843.06;10379533;28;20498;-79
2022/12/06 23:01:20;;;;;;;12.00;6.15;;;;;;;-5.92;86.26;101839.00;10378598;28;20045;-79
2022/12/06 23:06:24;;;;;;;9.27;5.78;;;;;;;-6.42;86.09;101751.09;10379488;28;20128;-79
2022/12/06 23:11:27;;;;;;;12.10;6.37;;;;;;;-6.08;87.53;101818.59;10378816;28;20038;-79
2022/12/06 23:16:29;;;;;;;12.23;6.80;;;;;;;-5.92;87.79;101831.25;10378658;28;20292;-79
2022/12/06 23:21:32;;;;;;;14.43;6.43;;;;;;;-5.91;87.27;101827.81;10380080;28;20331;-79
2022/12/06 23:26:37;;;;;;;13.60;6.68;;;;;;;-5.80;86.48;101844.00;10388473;28;20527;-80
2022/12/06 23:31:41;;;;;;;11.00;5.85;;;;;;;-6.19;85.96;101773.97;10376300;28;20052;-79
2022/12/06 23:36:42;;;;;;;12.15;6.53;;;;;;;-5.91;86.38;101831.22;10377769;28;20568;-79
2022/12/06 23:41:44;;;;;;;13.48;7.10;;;;;;;-5.88;87.10;101841.53;10377129;28;20522;-79
2022/12/06 23:46:44;;;;;;;12.70;7.75;;;;;;;-5.93;86.32;101827.00;10377050;28;20064;-80
2022/12/06 23:51:46;;;;;;;14.02;7.70;;;;;;;-5.82;86.59;101840.56;10377219;28;20060;-80